Time;durP1;ratioP1;P1;durP2;ratioP2;P2;SDS_P1;SDS_P2;PMS_P1;PMS_P2;Temp;Humidity;BMP_temperature;BMP_pressure;BME280_temperature;BME280_humidity;BME280_pressure;Samples;Min_cycle;Max_cycle;Signal;HPM_P1;HPM_P2
2022/05/02 00:00:20;;;;;;;18.80;10.85;;;7.90;99.90;8.50;98904.00;;;;4986657;28;85897;-63
2022/05/02 00:02:47;;;;;;;18.55;10.15;;;7.80;99.90;8.50;98901.00;;;;4981019;28;83100;-63
2022/05/02 00:05:14;;;;;;;17.35;10.73;;;7.80;99.90;8.40;98907.00;;;;4970226;28;82943;-60
2022/05/02 00:07:41;;;;;;;20.80;10.60;;;7.80;99.90;8.40;98891.00;;;;4966074;28;82672;-60
2022/05/02 00:10:08;;;;;;;15.02;10.25;;;7.80;99.90;8.40;98899.00;;;;4983299;28;82945;-60
2022/05/02 00:12:34;;;;;;;16.23;10.02;;;7.80;99.90;8.40;98899.00;;;;4988177;28;83200;-60
2022/05/02 00:15:01;;;;;;;15.82;9.93;;;7.80;99.90;8.40;98898.00;;;;4982640;28;83837;-63
2022/05/02 00:20:14;;;;;;;14.23;10.13;;;7.80;99.90;8.40;98882.00;;;;4983511;28;82699;-60
2022/05/02 00:22:40;;;;;;;16.73;10.00;;;7.70;99.90;8.40;98880.00;;;;4982629;28;84060;-60
2022/05/02 00:25:07;;;;;;;18.42;10.35;;;7.70;99.90;8.30;98874.00;;;;4982467;28;83196;-55
2022/05/02 00:27:33;;;;;;;18.33;10.02;;;7.70;99.90;8.30;98884.00;;;;4983427;28;82963;-56
2022/05/02 00:30:00;;;;;;;16.70;10.52;;;7.70;99.90;8.20;98886.00;;;;4981859;28;83008;-64
2022/05/02 00:32:26;;;;;;;17.65;10.13;;;7.70;99.90;8.20;98883.00;;;;4983495;28;84325;-65
2022/05/02 00:34:52;;;;;;;16.27;9.80;;;7.60;99.90;8.20;98878.00;;;;4982723;28;82677;-65
2022/05/02 00:37:19;;;;;;;14.32;10.20;;;7.60;99.90;8.20;98871.00;;;;4984248;28;82252;-63
2022/05/02 00:39:45;;;;;;;18.13;9.18;;;7.60;99.90;8.30;98869.00;;;;4981809;28;83112;-64
2022/05/02 00:42:11;;;;;;;19.15;10.40;;;7.70;99.90;8.40;98872.00;;;;4985294;28;82364;-64
2022/05/02 00:44:44;;;;;;;15.38;10.27;;;7.80;99.90;8.40;98873.00;;;;4965565;28;83130;-64
2022/05/02 00:47:11;;;;;;;17.02;10.07;;;7.70;99.90;8.30;98872.00;;;;4983589;28;82993;-54
2022/05/02 00:49:40;;;;;;;19.30;10.38;;;7.70;99.90;8.30;98870.00;;;;4979521;28;86047;-55
2022/05/02 00:52:07;;;;;;;18.23;10.40;;;7.70;99.90;8.20;98867.00;;;;4982914;28;83408;-64
2022/05/02 00:54:35;;;;;;;21.63;11.15;;;7.60;99.90;8.20;98869.00;;;;4983116;28;83025;-65
2022/05/02 00:57:02;;;;;;;18.00;11.18;;;7.60;99.90;8.10;98875.00;;;;4982826;28;82822;-65
2022/05/02 00:59:28;;;;;;;17.85;10.38;;;7.50;99.90;8.00;98876.00;;;;4996612;28;83723;-65
2022/05/02 01:01:55;;;;;;;17.88;10.20;;;7.50;99.90;8.00;98876.00;;;;4992786;28;84438;-65
2022/05/02 01:04:21;;;;;;;18.25;10.52;;;7.40;99.90;7.90;98866.00;;;;4983036;28;83099;-64
2022/05/02 01:09:33;;;;;;;15.82;9.45;;;7.20;99.90;7.80;98861.00;;;;4982465;28;83741;-65
2022/05/02 01:11:59;;;;;;;15.63;10.40;;;7.20;99.90;7.70;98855.00;;;;4990246;28;82479;-64
2022/05/02 01:14:25;;;;;;;18.25;9.88;;;7.10;99.90;7.60;98853.00;;;;4964454;28;83062;-64
2022/05/02 01:16:51;;;;;;;13.55;9.43;;;7.10;99.90;7.50;98862.00;;;;4983490;28;82974;-64
2022/05/02 01:19:17;;;;;;;15.50;9.73;;;7.00;99.90;7.50;98857.00;;;;4983609;28;82608;-64
2022/05/02 01:21:46;;;;;;;22.25;10.18;;;6.90;99.90;7.30;98862.00;;;;4982342;28;83490;-64
2022/05/02 01:24:13;;;;;;;15.80;10.32;;;6.90;99.90;7.20;98860.00;;;;4982258;28;82757;-64
2022/05/02 01:26:39;;;;;;;17.45;10.68;;;6.80;99.90;7.20;98860.00;;;;4980752;28;83413;-64
2022/05/02 01:29:06;;;;;;;19.23;9.80;;;6.80;99.90;7.20;98856.00;;;;4981694;28;82757;-64
2022/05/02 01:31:32;;;;;;;15.10;10.38;;;6.80;99.90;7.20;98853.00;;;;4982988;28;83021;-60
2022/05/02 01:34:00;;;;;;;14.57;9.90;;;6.80;99.90;7.30;98856.00;;;;4982945;28;82576;-60
2022/05/02 01:36:27;;;;;;;16.92;10.70;;;6.70;99.90;7.30;98851.00;;;;4966133;28;82413;-60
2022/05/02 01:38:53;;;;;;;17.48;10.77;;;6.70;99.90;7.30;98854.00;;;;4981873;28;84555;-60
2022/05/02 01:41:19;;;;;;;15.82;10.63;;;6.70;99.90;7.30;98855.00;;;;4982148;28;83205;-60
2022/05/02 01:43:47;;;;;;;15.57;11.02;;;6.70;99.90;7.20;98865.00;;;;4982565;28;83087;-65
2022/05/02 01:46:14;;;;;;;16.45;10.77;;;6.70;99.90;7.20;98868.00;;;;4982296;28;82963;-64
2022/05/02 01:48:40;;;;;;;17.50;11.32;;;6.60;99.90;7.20;98867.00;;;;4982569;28;82618;-64
2022/05/02 01:51:06;;;;;;;18.98;11.57;;;6.60;99.90;7.20;98867.00;;;;4977693;28;84904;-65
2022/05/02 01:53:33;;;;;;;19.73;11.57;;;6.60;99.90;7.20;98868.00;;;;4973925;28;82851;-64
2022/05/02 01:56:00;;;;;;;22.50;12.57;;;6.60;99.90;7.20;98866.00;;;;4997990;28;83071;-64
2022/05/02 01:58:26;;;;;;;19.63;11.88;;;6.60;99.90;7.20;98867.00;;;;4982783;28;82822;-65
2022/05/02 02:00:52;;;;;;;23.35;11.95;;;6.60;99.90;7.20;98870.00;;;;4982270;28;83078;-65
2022/05/02 02:03:18;;;;;;;24.10;11.32;;;6.60;99.90;7.30;98871.00;;;;4982191;28;82887;-63
2022/05/02 02:05:50;;;;;;;17.65;11.40;;;6.60;99.90;7.30;98870.00;;;;4996669;28;82470;-64
2022/05/02 02:08:32;;;;;;;16.42;11.65;;;6.70;99.90;7.30;98867.00;;;;4981452;28;83670;-64
2022/05/02 02:11:06;;;;;;;;;;;6.70;99.90;7.30;98880.00;;;;4983166;28;82523;-60
2022/05/02 02:13:35;;;;;;;18.02;11.63;;;6.70;99.90;7.30;98877.00;;;;4990372;28;82146;-65
2022/05/02 02:16:07;;;;;;;22.88;11.88;;;6.80;99.90;7.40;98882.00;;;;4981150;28;82983;-60
2022/05/02 02:18:35;;;;;;;17.42;11.43;;;6.80;99.90;7.40;98883.00;;;;4981403;28;83810;-60
2022/05/02 02:21:01;;;;;;;15.73;10.25;;;6.80;99.90;7.30;98883.00;;;;4981469;28;83191;-63
2022/05/02 02:23:27;;;;;;;17.63;10.80;;;6.80;99.90;7.40;98885.00;;;;4981588;28;82993;-60
2022/05/02 02:25:53;;;;;;;18.92;11.38;;;6.80;99.90;7.40;98881.00;;;;4981310;28;83595;-60
2022/05/02 02:28:20;;;;;;;17.42;11.13;;;6.80;99.90;7.50;98889.00;;;;4984926;28;83469;-60
2022/05/02 02:30:47;;;;;;;18.90;11.13;;;6.90;99.90;7.50;98878.00;;;;4985225;28;83196;-60
2022/05/02 02:33:13;;;;;;;20.58;11.00;;;6.90;99.90;7.60;98897.00;;;;4985580;28;83206;-64
2022/05/02 02:35:39;;;;;;;21.95;11.23;;;7.00;99.90;7.60;98885.00;;;;4985253;28;82565;-60
2022/05/02 02:38:06;;;;;;;22.67;11.60;;;7.00;99.90;7.60;98876.00;;;;4985253;28;82774;-61
2022/05/02 02:40:32;;;;;;;18.13;11.07;;;7.00;99.90;7.60;98878.00;;;;4984895;28;82767;-60
2022/05/02 02:42:58;;;;;;;19.63;11.35;;;7.00;99.90;7.60;98882.00;;;;4984495;28;83078;-59
2022/05/02 02:45:24;;;;;;;17.83;11.45;;;7.00;99.90;7.70;98880.00;;;;4987088;28;85774;-60
2022/05/02 02:47:50;;;;;;;19.08;11.27;;;7.10;99.90;7.70;98878.00;;;;4985303;28;82594;-60
2022/05/02 02:50:16;;;;;;;19.92;11.80;;;7.20;99.90;7.80;98883.00;;;;4984490;28;84236;-59
2022/05/02 02:52:42;;;;;;;19.50;11.23;;;7.20;99.90;7.90;98878.00;;;;4984941;28;83718;-60
2022/05/02 02:55:09;;;;;;;19.50;11.57;;;7.30;99.90;7.90;98889.00;;;;5000928;28;82934;-60
2022/05/02 02:57:35;;;;;;;21.40;11.50;;;7.30;99.90;8.00;98885.00;;;;4984630;28;83076;-60
2022/05/02 03:00:01;;;;;;;19.10;11.15;;;7.30;99.90;8.00;98884.00;;;;4985650;28;83169;-60
2022/05/02 03:02:30;;;;;;;17.42;11.20;;;7.40;99.90;8.10;98889.00;;;;4984640;28;84607;-60
2022/05/02 03:07:41;;;;;;;22.88;12.25;;;7.50;99.90;8.20;98882.00;;;;4983820;28;83175;-60
2022/05/02 03:10:08;;;;;;;18.27;12.10;;;7.60;99.90;8.20;98889.00;;;;4984848;28;83351;-60
2022/05/02 03:12:36;;;;;;;20.17;11.52;;;7.60;99.90;8.20;98884.00;;;;4984735;28;82826;-60
2022/05/02 03:15:02;;;;;;;22.10;11.70;;;7.60;99.90;8.20;98883.00;;;;4985191;28;82649;-60
2022/05/02 03:17:29;;;;;;;22.20;11.27;;;7.60;99.90;8.30;98883.00;;;;4984165;28;83458;-61
2022/05/02 03:19:55;;;;;;;21.58;11.07;;;7.60;99.90;8.30;98877.00;;;;4990306;28;83325;-60
2022/05/02 03:22:21;;;;;;;21.38;11.18;;;7.70;99.90;8.40;98879.00;;;;4984230;28;82609;-57
2022/05/02 03:24:47;;;;;;;20.08;11.43;;;7.70;99.90;8.40;98886.00;;;;4983127;28;82834;-59
2022/05/02 03:27:14;;;;;;;23.27;11.93;;;7.70;99.90;8.50;98881.00;;;;4983095;28;83834;-60
2022/05/02 03:29:40;;;;;;;19.05;10.70;;;7.80;99.90;8.50;98891.00;;;;4983530;28;84704;-63
2022/05/02 03:32:06;;;;;;;18.73;10.82;;;7.80;99.90;8.50;98888.00;;;;4984330;28;83670;-60
2022/05/02 03:34:32;;;;;;;24.67;12.05;;;7.80;99.90;8.50;98888.00;;;;4984866;28;82868;-60
2022/05/02 03:36:59;;;;;;;22.98;12.05;;;7.80;99.90;8.50;98892.00;;;;4983946;28;82580;-60
2022/05/02 03:39:25;;;;;;;27.38;13.00;;;7.80;99.90;8.60;98892.00;;;;4983960;28;84627;-61
2022/05/02 03:41:52;;;;;;;22.42;12.30;;;7.90;99.90;8.60;98898.00;;;;4983808;28;82917;-60
2022/05/02 03:44:19;;;;;;;25.17;12.13;;;7.90;99.90;8.50;98895.00;;;;4984626;28;82664;-61
2022/05/02 03:46:45;;;;;;;23.45;12.05;;;7.90;99.90;8.60;98886.00;;;;4984084;28;83737;-60
2022/05/02 03:49:12;;;;;;;20.50;11.48;;;7.90;99.90;8.80;98892.00;;;;4983797;28;83248;-61
2022/05/02 03:51:38;;;;;;;22.73;11.43;;;8.10;99.90;9.00;98894.00;;;;4983720;28;82780;-61
2022/05/02 03:54:04;;;;;;;25.17;11.90;;;8.20;99.90;9.10;98901.00;;;;4984514;28;82621;-61
2022/05/02 03:56:30;;;;;;;19.70;11.32;;;8.30;99.90;9.30;98900.00;;;;4980552;28;87635;-61
2022/05/02 03:58:56;;;;;;;25.55;11.73;;;8.50;99.90;9.60;98901.00;;;;4991428;28;87319;-57
2022/05/02 04:01:24;;;;;;;20.77;11.55;;;8.80;99.90;9.70;98897.00;;;;4998077;28;86854;-57
2022/05/02 04:03:50;;;;;;;20.27;11.55;;;8.90;99.90;9.70;98901.00;;;;4981402;28;87256;-58
2022/05/02 04:06:16;;;;;;;18.88;10.68;;;9.00;99.90;9.80;98902.00;;;;4981149;28;88777;-56
2022/05/02 04:08:42;;;;;;;20.38;11.63;;;9.00;99.90;9.70;98900.00;;;;4981435;28;88310;-58
2022/05/02 04:11:09;;;;;;;24.25;10.70;;;8.90;99.90;9.70;98891.00;;;;4981751;28;86991;-56
2022/05/02 04:13:35;;;;;;;19.98;9.73;;;9.00;99.90;9.60;98894.00;;;;4977805;28;87142;-59
2022/05/02 04:16:01;;;;;;;18.48;10.05;;;8.90;99.90;9.70;98899.00;;;;4982316;28;87576;-62
2022/05/02 04:18:29;;;;;;;20.35;9.98;;;9.00;99.90;9.80;98889.00;;;;4985313;28;87370;-61
2022/05/02 04:20:55;;;;;;;17.27;9.40;;;9.00;99.90;9.90;98905.00;;;;4984135;28;86952;-61
2022/05/02 04:23:21;;;;;;;22.33;9.75;;;9.10;99.90;9.90;98903.00;;;;4982012;28;86288;-61
2022/05/02 04:25:47;;;;;;;15.27;9.63;;;9.20;99.90;10.00;98901.00;;;;4963506;28;90078;-61
2022/05/02 04:28:14;;;;;;;18.90;9.13;;;9.30;99.90;10.10;98905.00;;;;4981242;28;87956;-61
2022/05/02 04:30:40;;;;;;;17.48;8.77;;;9.30;99.90;10.20;98911.00;;;;4980225;28;88569;-60
2022/05/02 04:33:07;;;;;;;18.85;9.55;;;9.40;99.90;10.20;98901.00;;;;4981877;28;86980;-62
2022/05/02 04:35:33;;;;;;;21.05;8.73;;;9.40;99.90;10.20;98917.00;;;;4981433;28;87913;-61
2022/05/02 04:38:01;;;;;;;15.13;8.63;;;9.40;99.90;10.10;98919.00;;;;4981132;28;87403;-61
2022/05/02 04:40:27;;;;;;;15.10;9.07;;;9.40;99.90;10.30;98907.00;;;;4981546;28;87527;-61
2022/05/02 04:42:53;;;;;;;15.52;8.50;;;9.50;99.90;10.30;98910.00;;;;4980399;28;87018;-59
2022/05/02 04:45:20;;;;;;;17.65;9.25;;;9.50;99.90;10.20;98918.00;;;;4980291;28;88600;-60
2022/05/02 04:47:46;;;;;;;23.63;9.30;;;9.40;99.90;10.30;98905.00;;;;4980644;28;88538;-60
2022/05/02 04:50:12;;;;;;;18.50;9.32;;;9.60;99.90;10.40;98909.00;;;;4979999;28;87738;-60
2022/05/02 04:52:38;;;;;;;16.08;9.50;;;9.60;99.90;10.40;98900.00;;;;4980588;28;86952;-61
2022/05/02 04:55:05;;;;;;;16.70;8.55;;;9.70;99.90;10.60;98913.00;;;;4980910;28;88465;-59
2022/05/02 04:57:31;;;;;;;14.23;8.02;;;9.80;99.90;10.60;98909.00;;;;4980787;28;88452;-57
2022/05/02 04:59:57;;;;;;;20.10;9.95;;;9.90;99.90;10.80;98914.00;;;;4977466;28;87380;-58
2022/05/02 05:02:24;;;;;;;17.50;8.70;;;9.90;99.90;10.90;98907.00;;;;4972948;28;86982;-58
2022/05/02 05:04:50;;;;;;;18.80;8.77;;;10.00;99.90;10.90;98907.00;;;;4988298;28;88013;-61
2022/05/02 05:07:16;;;;;;;14.95;9.02;;;10.10;99.90;11.10;98900.00;;;;4992275;28;87115;-61
2022/05/02 05:09:42;;;;;;;18.08;9.45;;;10.20;99.90;11.30;98901.00;;;;4981378;28;87005;-60
2022/05/02 05:12:47;;;;;;;16.85;9.35;;;10.40;99.90;11.30;98899.00;;;;4972795;28;86672;-60
2022/05/02 05:19:01;;;;;;;20.17;8.82;;;10.60;99.90;11.50;98907.00;;;;4979965;28;88509;-61
2022/05/02 05:22:10;;;;;;;15.27;7.63;;;10.70;99.90;11.80;98906.00;;;;4956487;28;88042;-59
2022/05/02 05:24:56;;;;;;;18.67;8.43;;;10.90;99.90;12.10;98912.00;;;;4979362;28;87383;-59
2022/05/02 05:27:46;;;;;;;15.38;7.13;;;11.10;99.90;11.90;98913.00;;;;4979050;28;88857;-59
2022/05/02 05:30:13;;;;;;;19.83;8.55;;;11.10;99.90;11.70;98906.00;;;;4979827;28;87189;-59
2022/05/02 05:33:06;;;;;;;18.33;8.40;;;10.90;99.90;11.40;98913.00;;;;4981019;28;87006;-61
2022/05/02 05:36:03;;;;;;;11.60;7.43;;;10.60;99.90;11.40;98917.00;;;;4963493;28;87183;-60
2022/05/02 05:38:51;;;;;;;14.52;6.38;;;10.60;99.90;11.30;98913.00;;;;4980585;28;87705;-60
2022/05/02 05:41:26;;;;;;;9.93;5.75;;;10.70;99.90;11.40;98905.00;;;;4983024;28;87383;-59
2022/05/02 05:44:14;;;;;;;10.82;5.53;;;10.70;99.90;11.70;98896.00;;;;4980497;28;87167;-62
2022/05/02 05:47:03;;;;;;;8.15;4.90;;;10.90;99.90;12.00;98906.00;;;;4980951;28;87223;-59
2022/05/02 05:49:47;;;;;;;9.13;4.82;;;11.10;99.90;12.90;98897.00;;;;4979582;28;88961;-63
2022/05/02 05:52:43;;;;;;;6.75;4.68;;;11.80;98.40;13.40;98898.00;;;;4979956;28;88455;-60
2022/05/02 05:55:22;;;;;;;14.23;5.85;;;12.30;96.40;14.00;98902.00;;;;4966269;28;87346;-63
2022/05/02 05:58:02;;;;;;;11.60;5.80;;;12.80;96.10;13.80;98904.00;;;;4980721;28;87153;-61
2022/05/02 06:00:39;;;;;;;14.02;5.75;;;12.70;94.90;13.20;98906.00;;;;4995277;28;87919;-59
2022/05/02 06:03:17;;;;;;;7.35;4.15;;;12.30;95.40;13.10;98900.00;;;;4980332;28;88421;-61
2022/05/02 06:05:47;;;;;;;13.70;4.75;;;12.20;94.90;12.50;98890.00;;;;5010659;28;87046;-61
2022/05/02 06:08:21;;;;;;;8.27;4.13;;;11.80;93.60;12.60;98888.00;;;;4982053;28;86536;-61
2022/05/02 06:10:51;;;;;;;12.13;4.15;;;11.90;92.90;12.30;98881.00;;;;4979866;28;87616;-60
2022/05/02 06:13:19;;;;;;;8.48;3.78;;;11.70;93.00;12.10;98890.00;;;;4989388;28;87588;-59
2022/05/02 06:18:37;;;;;;;9.68;3.13;;;11.50;91.60;12.00;98895.00;;;;4997903;28;87295;-59
2022/05/02 06:21:07;;;;;;;8.82;4.65;;;11.50;91.60;11.70;98889.00;;;;4981611;28;88705;-61
2022/05/02 06:23:47;;;;;;;11.73;4.63;;;11.20;93.10;11.70;98879.00;;;;4979413;28;88414;-57
2022/05/02 06:26:15;;;;;;;11.55;4.50;;;11.30;94.00;11.80;98882.00;;;;4978391;28;86952;-58
2022/05/02 06:28:44;;;;;;;10.95;4.28;;;11.40;93.40;11.90;98885.00;;;;4978647;28;87390;-59
2022/05/02 06:31:19;;;;;;;7.32;3.00;;;11.40;92.40;11.80;98891.00;;;;4979363;28;87742;-57
2022/05/02 06:33:49;;;;;;;5.30;2.47;;;11.40;78.30;12.00;98894.00;;;;4978996;28;88347;-58
2022/05/02 06:36:52;;;;;;;3.53;2.23;;;11.50;72.70;12.00;98886.00;;;;4980364;28;87246;-57
2022/05/02 06:39:40;;;;;;;8.00;2.30;;;11.60;71.60;12.00;98890.00;;;;4980339;28;87298;-60
2022/05/02 06:42:25;;;;;;;5.63;2.20;;;11.60;74.00;12.10;98883.00;;;;4978176;28;89740;-61
2022/05/02 06:45:18;;;;;;;6.90;2.17;;;11.70;72.20;12.10;98878.00;;;;4980137;28;88149;-60
2022/05/02 06:47:59;;;;;;;5.30;2.70;;;11.70;70.50;12.10;98875.00;;;;4990943;28;87082;-60
2022/05/02 06:50:29;;;;;;;7.30;2.30;;;11.70;70.40;12.20;98879.00;;;;4979389;28;87538;-61
2022/05/02 06:53:34;;;;;;;6.25;2.75;;;11.80;71.60;12.40;98874.00;;;;4978695;28;87439;-62
2022/05/02 06:57:15;;;;;;;11.70;2.47;;;12.00;70.80;12.50;98873.00;;;;4979883;28;88337;-60
2022/05/02 07:00:06;;;;;;;5.57;2.65;;;12.00;68.10;12.50;98877.00;;;;4952395;28;87745;-60
2022/05/02 07:02:52;;;;;;;6.57;3.05;;;12.10;68.50;12.50;98860.00;;;;4971586;28;86281;-64
2022/05/02 07:05:30;;;;;;;10.25;2.60;;;12.00;69.40;12.50;98869.00;;;;4990595;28;86944;-64
2022/05/02 07:08:06;;;;;;;5.57;2.28;;;12.10;67.60;12.50;98875.00;;;;4986335;28;87216;-64
2022/05/02 07:10:35;;;;;;;10.63;3.17;;;12.00;69.60;12.30;98877.00;;;;4979367;28;87914;-63
2022/05/02 07:13:54;;;;;;;6.72;2.80;;;11.90;63.20;12.40;98865.00;;;;4981379;28;87287;-65
2022/05/02 07:16:25;;;;;;;7.05;2.72;;;11.90;62.00;12.30;98868.00;;;;4965981;28;87354;-64
2022/05/02 07:19:05;;;;;;;5.60;2.22;;;11.80;60.20;12.50;98862.00;;;;4990126;28;87307;-65
2022/05/02 07:21:56;;;;;;;7.15;2.50;;;12.00;59.50;12.70;98856.00;;;;4982702;28;87519;-65
2022/05/02 07:24:47;;;;;;;7.60;2.78;;;12.20;60.40;12.70;98879.00;;;;4981055;28;87592;-66
2022/05/02 07:27:53;;;;;;;8.02;2.53;;;12.20;60.30;12.70;98864.00;;;;4979898;28;87745;-61
2022/05/02 07:30:24;;;;;;;6.20;2.22;;;12.20;60.60;12.70;98862.00;;;;4972565;28;86296;-61
2022/05/02 07:32:53;;;;;;;5.82;2.30;;;12.20;61.10;12.70;98868.00;;;;4982525;28;87045;-61
2022/05/02 07:35:24;;;;;;;6.20;2.65;;;12.20;58.90;13.00;98866.00;;;;4982607;28;87355;-62
2022/05/02 07:37:52;;;;;;;3.95;1.90;;;12.50;59.10;12.70;98873.00;;;;4981875;28;89078;-60
2022/05/02 07:40:20;;;;;;;6.15;1.83;;;12.10;55.80;12.10;98875.00;;;;4981304;28;87422;-61
2022/05/02 07:42:47;;;;;;;3.05;1.80;;;11.50;55.20;11.80;98877.00;;;;4982147;28;87631;-60
2022/05/02 07:45:17;;;;;;;5.38;2.00;;;11.30;55.20;11.90;98861.00;;;;4982336;28;87049;-58
2022/05/02 07:47:49;;;;;;;3.35;1.58;;;11.20;55.80;12.00;98864.00;;;;4976749;28;87624;-59
2022/05/02 07:50:17;;;;;;;4.82;1.90;;;11.40;56.20;12.10;98854.00;;;;4974916;28;88464;-58
2022/05/02 07:52:45;;;;;;;3.97;1.70;;;11.60;55.40;12.00;98867.00;;;;4997808;28;87299;-59
2022/05/02 07:55:15;;;;;;;2.72;1.40;;;11.50;54.70;12.10;98857.00;;;;4982471;28;86447;-61
2022/05/02 07:57:42;;;;;;;8.45;2.00;;;11.60;55.00;12.40;98863.00;;;;4997340;28;88091;-61
2022/05/02 08:00:12;;;;;;;4.32;1.75;;;11.90;54.30;12.70;98860.00;;;;4982738;28;87441;-60
2022/05/02 08:02:40;;;;;;;4.57;1.65;;;12.10;51.30;12.50;98871.00;;;;4980305;28;88037;-61
2022/05/02 08:05:07;;;;;;;5.25;1.65;;;12.00;48.80;12.60;98876.00;;;;4981727;28;87143;-60
2022/05/02 08:07:43;;;;;;;5.75;2.40;;;12.00;50.40;12.90;98862.00;;;;4981325;28;87548;-60
2022/05/02 08:10:43;;;;;;;5.53;1.85;;;12.30;51.90;13.20;98860.00;;;;4981262;28;87330;-60
2022/05/02 08:13:34;;;;;;;3.55;1.98;;;12.50;51.90;13.40;98861.00;;;;4979348;28;87021;-60
2022/05/02 08:16:14;;;;;;;2.78;1.63;;;12.70;51.80;13.50;98856.00;;;;4979453;28;87270;-60
2022/05/02 08:19:09;;;;;;;2.80;1.77;;;12.90;51.80;13.80;98854.00;;;;4980698;28;88640;-61
2022/05/02 08:21:51;;;;;;;4.90;1.98;;;13.10;50.40;13.70;98857.00;;;;4980305;28;89072;-61
2022/05/02 08:27:54;;;;;;;4.80;1.63;;;12.80;47.60;13.30;98862.00;;;;4981862;28;87030;-66
2022/05/02 08:30:25;;;;;;;3.78;1.73;;;12.60;47.50;13.10;98858.00;;;;4981021;28;88699;-65
2022/05/02 08:33:08;;;;;;;4.97;1.50;;;12.40;49.30;13.10;98854.00;;;;4981531;28;89633;-65
2022/05/02 08:36:02;;;;;;;7.65;5.20;;;12.30;48.90;13.10;98840.00;;;;4980777;28;86983;-65
2022/05/02 08:38:37;;;;;;;5.03;1.90;;;12.30;50.00;12.90;98846.00;;;;4980946;28;86997;-65
2022/05/02 08:41:28;;;;;;;4.43;1.80;;;12.30;49.10;13.10;98845.00;;;;4980262;28;87644;-64
2022/05/02 08:44:27;;;;;;;2.75;1.40;;;12.50;47.10;13.10;98846.00;;;;4976888;28;88491;-65
2022/05/02 08:47:23;;;;;;;4.30;1.40;;;12.50;42.30;13.10;98852.00;;;;4996380;28;86923;-65
2022/05/02 08:50:22;;;;;;;3.60;1.27;;;12.50;44.10;13.40;98826.00;;;;4994923;28;86471;-65
2022/05/02 08:53:26;;;;;;;2.72;1.70;;;12.70;42.80;13.60;98830.00;;;;4978728;28;87596;-64
2022/05/02 08:56:06;;;;;;;3.20;1.40;;;12.90;42.60;13.50;98821.00;;;;4979482;28;87450;-64
2022/05/02 08:58:50;;;;;;;3.40;2.10;;;12.80;42.50;13.60;98824.00;;;;4995641;28;88544;-65
2022/05/02 09:01:57;;;;;;;8.02;2.05;;;12.90;44.30;13.70;98822.00;;;;4981222;28;86925;-64
2022/05/02 09:04:53;;;;;;;8.00;1.63;;;12.90;44.40;13.60;98835.00;;;;4978502;28;89388;-65
2022/05/02 09:07:41;;;;;;;4.57;1.63;;;12.90;44.80;13.20;98828.00;;;;4996526;28;88375;-65
2022/05/02 09:10:17;;;;;;;4.25;1.80;;;12.60;44.80;13.20;98822.00;;;;4980422;28;87312;-66
2022/05/02 09:13:31;;;;;;;4.95;1.90;;;12.40;45.60;13.10;98818.00;;;;4978773;28;87046;-65
2022/05/02 09:16:16;;;;;;;2.67;1.58;;;12.50;45.40;13.30;98813.00;;;;4991534;28;88008;-65
2022/05/02 09:19:12;;;;;;;3.83;1.70;;;12.70;45.50;13.40;98806.00;;;;4985718;28;87229;-65
2022/05/02 09:21:41;;;;;;;3.65;1.67;;;12.80;44.40;13.60;98805.00;;;;4979244;28;87061;-64
2022/05/02 09:24:51;;;;;;;5.22;1.60;;;12.90;44.00;13.40;98808.00;;;;4977116;28;87007;-64
2022/05/02 09:27:54;;;;;;;5.07;2.20;;;12.80;44.10;13.20;98802.00;;;;4977517;28;88705;-65
2022/05/02 09:30:36;;;;;;;4.82;1.80;;;12.70;43.50;13.30;98802.00;;;;4979362;28;89255;-64
2022/05/02 09:33:29;;;;;;;2.97;1.65;;;12.70;44.90;13.50;98798.00;;;;4975500;28;86999;-65
2022/05/02 09:36:34;;;;;;;6.20;1.70;;;12.80;44.90;13.70;98792.00;;;;4979990;28;87462;-65
2022/05/02 09:39:15;;;;;;;4.43;1.60;;;13.10;43.10;14.10;98780.00;;;;4971183;28;87372;-65
2022/05/02 09:42:01;;;;;;;4.25;1.52;;;13.40;42.40;14.20;98783.00;;;;4972704;28;87212;-65
2022/05/02 09:51:39;;;;;;;2.85;1.73;;;13.60;41.10;14.30;98769.00;;;;4977641;28;88831;-65
2022/05/02 09:57:23;;;;;;;3.28;1.63;;;13.30;40.10;14.10;98777.00;;;;4979129;28;87796;-66
2022/05/02 10:02:49;;;;;;;6.70;1.88;;;13.30;40.50;14.10;98765.00;;;;4958482;28;87653;-65
2022/05/02 10:05:26;;;;;;;3.67;1.50;;;13.30;40.40;13.90;98766.00;;;;4979526;28;87739;-61
2022/05/02 10:08:25;;;;;;;3.72;1.70;;;13.10;40.30;14.00;98763.00;;;;4979955;28;86973;-62
2022/05/02 10:11:21;;;;;;;4.05;1.60;;;13.30;40.50;14.40;98754.00;;;;4995864;28;87355;-61
2022/05/02 10:14:05;;;;;;;6.07;1.98;;;13.60;40.60;14.60;98752.00;;;;4979526;28;88267;-61
2022/05/02 10:16:35;;;;;;;3.42;1.42;;;13.80;40.10;14.50;98746.00;;;;4961157;28;88440;-61
2022/05/02 10:19:20;;;;;;;2.70;1.60;;;13.70;39.90;14.10;98744.00;;;;4987709;28;87086;-61
2022/05/02 10:22:10;;;;;;;2.78;1.77;;;13.60;39.90;14.50;98732.00;;;;4995271;28;87069;-62
2022/05/02 10:24:46;;;;;;;4.10;2.00;;;13.80;40.70;14.20;98730.00;;;;4976519;28;89033;-61
2022/05/02 10:27:28;;;;;;;5.80;1.70;;;13.70;40.20;14.60;98737.00;;;;4978296;28;87911;-61
2022/05/02 10:30:02;;;;;;;;;;;13.90;42.00;14.80;98744.00;;;;4977134;28;87503;-61
2022/05/02 10:33:03;;;;;;;6.53;1.70;;;14.10;40.60;15.10;98723.00;;;;4979297;28;87279;-61
2022/05/02 10:35:29;;;;;;;6.47;3.70;;;14.30;39.70;15.50;98721.00;;;;4971812;28;87547;-60
2022/05/02 10:38:02;;;;;;;7.80;2.30;;;14.70;41.30;15.80;98717.00;;;;4979568;28;87179;-61
2022/05/02 10:40:42;;;;;;;3.90;2.08;;;14.90;39.40;15.80;98720.00;;;;4979083;28;87348;-61
2022/05/02 10:43:12;;;;;;;2.80;1.85;;;15.10;39.00;15.80;98709.00;;;;4980010;28;86492;-63
2022/05/02 10:45:40;;;;;;;4.93;1.90;;;14.90;37.80;15.30;98695.00;;;;4928144;28;90762;-61
2022/05/02 10:48:18;;;;;;;3.58;1.90;;;14.70;37.40;15.40;98699.00;;;;4978461;28;87495;-61
2022/05/02 10:51:05;;;;;;;7.00;1.98;;;14.60;37.30;15.70;98696.00;;;;4981858;28;87993;-62
2022/05/02 10:53:59;;;;;;;4.43;1.85;;;14.90;39.50;16.00;98692.00;;;;4982598;28;87387;-63
2022/05/02 10:56:47;;;;;;;3.80;1.90;;;15.10;37.70;16.40;98690.00;;;;4973802;28;88711;-61
2022/05/02 10:59:15;;;;;;;5.40;1.70;;;15.40;37.70;16.10;98682.00;;;;4998318;28;88913;-61
2022/05/02 11:02:22;;;;;;;4.22;2.30;;;15.40;37.30;16.00;98695.00;;;;4998151;28;86938;-61
2022/05/02 11:05:12;;;;;;;6.22;2.25;;;15.10;36.40;15.90;98691.00;;;;4975930;28;86798;-61
2022/05/02 11:08:18;;;;;;;6.90;2.05;;;15.10;36.90;16.20;98689.00;;;;4983282;28;87608;-61
2022/05/02 11:11:04;;;;;;;4.75;1.80;;;15.40;38.70;16.40;98694.00;;;;4981606;28;88439;-61
2022/05/02 11:13:45;;;;;;;3.58;1.73;;;15.40;37.30;15.90;98676.00;;;;4982613;28;86968;-61
2022/05/02 11:16:49;;;;;;;3.67;1.90;;;15.20;37.30;15.90;98682.00;;;;4982904;28;87460;-61
2022/05/02 11:23:14;;;;;;;6.07;1.90;;;15.30;38.40;16.80;98660.00;;;;4980079;28;91531;-61
2022/05/02 11:26:17;;;;;;;9.73;1.67;;;16.00;36.80;16.00;98659.00;;;;4979339;28;87492;-62
2022/05/02 11:29:25;;;;;;;6.10;1.80;;;15.40;36.00;15.80;98668.00;;;;4981938;28;87029;-61
2022/05/02 11:32:03;;;;;;;4.80;1.55;;;15.10;36.90;16.30;98670.00;;;;4981384;28;88644;-61
2022/05/02 11:35:05;;;;;;;3.70;1.52;;;15.30;37.90;16.40;98664.00;;;;4982384;28;88339;-61
2022/05/02 11:37:55;;;;;;;4.28;1.63;;;15.40;36.60;16.90;98666.00;;;;4966834;28;87164;-61
2022/05/02 11:40:54;;;;;;;3.22;1.42;;;15.90;37.50;17.20;98637.00;;;;4973943;28;86161;-61
2022/05/02 11:43:22;;;;;;;5.15;2.00;;;16.20;37.20;17.40;98640.00;;;;4997898;28;88182;-58
2022/05/02 11:46:20;;;;;;;2.97;1.70;;;16.40;36.60;17.70;98640.00;;;;4981380;28;87405;-59
2022/05/02 11:49:02;;;;;;;3.33;1.30;;;16.70;36.60;17.70;98632.00;;;;4965127;28;87987;-58
2022/05/02 11:51:50;;;;;;;4.18;1.33;;;16.70;36.40;17.80;98631.00;;;;4979179;28;87333;-60
2022/05/02 11:54:39;;;;;;;5.13;1.45;;;16.70;35.80;17.90;98624.00;;;;4981976;28;89441;-58
2022/05/02 11:57:22;;;;;;;3.20;1.48;;;17.00;37.00;18.10;98636.00;;;;4981892;28;87283;-59
2022/05/02 12:00:13;;;;;;;6.13;1.70;;;17.10;35.80;17.80;98640.00;;;;4982117;28;87017;-57
2022/05/02 12:02:42;;;;;;;2.30;1.50;;;16.80;35.30;17.40;98639.00;;;;4991387;28;87110;-59
2022/05/02 12:05:18;;;;;;;5.07;1.90;;;16.40;35.20;16.90;98637.00;;;;4982419;28;87582;-57
2022/05/02 12:08:12;;;;;;;7.22;1.92;;;15.90;36.10;16.90;98636.00;;;;4982514;28;87362;-59